createdAt,value
2022-10-14T00:01:20.761Z,83.40
2022-10-14T00:03:48.405Z,83.28
2022-10-14T00:06:20.941Z,83.47
2022-10-14T00:08:47.559Z,83.55
2022-10-14T00:11:17.885Z,83.41
2022-10-14T00:13:45.329Z,83.27
2022-10-14T00:16:18.487Z,83.54
2022-10-14T00:18:47.304Z,83.75
2022-10-14T00:21:14.905Z,83.66
2022-10-14T00:23:41.656Z,83.75
2022-10-14T00:26:24.516Z,84.03
2022-10-14T00:28:52.595Z,83.28
2022-10-14T00:31:20.370Z,83.07
2022-10-14T00:33:49.761Z,82.81
2022-10-14T00:36:19.204Z,82.91
2022-10-14T00:38:46.470Z,83.36
2022-10-14T00:41:25.737Z,84.07
2022-10-14T00:43:55.354Z,84.69
2022-10-14T00:46:23.175Z,84.82
2022-10-14T00:48:58.696Z,85.10
2022-10-14T00:51:25.959Z,84.88
2022-10-14T00:53:53.861Z,84.55
2022-10-14T00:56:25.077Z,84.98
2022-10-14T00:58:53.253Z,85.28
2022-10-14T01:01:20.648Z,85.08
2022-10-14T01:03:47.751Z,85.04
2022-10-14T01:06:37.230Z,85.24
2022-10-14T01:09:22.759Z,85.62
2022-10-14T01:12:29.514Z,85.29
2022-10-14T01:15:34.074Z,85.49
2022-10-14T01:18:09.769Z,85.42
2022-10-14T01:20:55.727Z,85.24
2022-10-14T01:23:47.495Z,84.81
2022-10-14T01:26:29.781Z,84.86
2022-10-14T01:29:05.904Z,84.93
2022-10-14T01:31:35.453Z,84.65
2022-10-14T01:34:09.590Z,84.25
2022-10-14T01:37:06.771Z,84.48
2022-10-14T01:39:41.354Z,84.44
2022-10-14T01:42:30.392Z,84.61
2022-10-14T01:45:05.338Z,84.68
2022-10-14T01:47:35.631Z,84.62
2022-10-14T01:50:08.220Z,84.94
2022-10-14T01:52:41.761Z,85.13
2022-10-14T01:55:15.121Z,85.05
2022-10-14T01:57:44.352Z,84.94
2022-10-14T02:00:11.821Z,84.94
2022-10-14T02:02:42.721Z,85.27
2022-10-14T02:05:37.156Z,85.47
2022-10-14T02:08:42.642Z,85.35
2022-10-14T02:11:16.948Z,85.45
2022-10-14T02:14:09.141Z,85.79
2022-10-14T02:16:48.896Z,85.62
2022-10-14T02:19:44.515Z,85.59
2022-10-14T02:22:39.581Z,85.50
2022-10-14T02:25:18.656Z,85.63
2022-10-14T02:27:49.242Z,85.13
2022-10-14T02:30:17.134Z,85.22
2022-10-14T02:32:46.400Z,85.05
2022-10-14T02:35:17.901Z,84.71
2022-10-14T02:37:48.130Z,84.87
2022-10-14T02:40:35.797Z,84.34
2022-10-14T02:43:02.464Z,84.47
2022-10-14T02:45:29.687Z,84.60
2022-10-14T02:47:57.305Z,84.52
2022-10-14T02:50:23.892Z,84.24
2022-10-14T02:52:51.929Z,84.15
2022-10-14T02:55:20.374Z,84.25
2022-10-14T02:57:47.831Z,84.30
2022-10-14T03:00:15.635Z,84.40
2022-10-14T03:02:43.048Z,83.86
2022-10-14T03:05:10.262Z,84.07
2022-10-14T03:07:38.776Z,83.75
2022-10-14T03:10:08.991Z,83.74
2022-10-14T03:12:36.771Z,83.71
2022-10-14T03:15:03.991Z,83.46
2022-10-14T03:17:33.687Z,83.98
2022-10-14T03:20:05.727Z,83.97
2022-10-14T03:22:37.149Z,84.34
2022-10-14T03:25:05.420Z,83.56
2022-10-14T03:27:41.943Z,83.76
2022-10-14T03:30:13.094Z,83.92
2022-10-14T03:32:53.556Z,83.51
2022-10-14T03:35:30.305Z,83.48
2022-10-14T03:38:00.908Z,83.55
2022-10-14T03:40:31.098Z,83.36
2022-10-14T03:43:01.792Z,83.74
2022-10-14T03:45:36.367Z,83.44
2022-10-14T03:48:04.823Z,83.82
2022-10-14T03:50:31.529Z,83.51
2022-10-14T03:52:58.843Z,83.80
2022-10-14T03:55:32.451Z,83.60
2022-10-14T03:58:00.310Z,83.53
2022-10-14T04:00:27.533Z,83.41
2022-10-14T04:03:08.417Z,83.58
2022-10-14T04:05:38.901Z,83.22
2022-10-14T04:08:11.824Z,83.31
2022-10-14T04:10:43.820Z,83.04
2022-10-14T04:13:14.120Z,83.41
2022-10-14T04:15:41.542Z,83.31
2022-10-14T04:18:13.242Z,83.18
2022-10-14T04:20:41.656Z,83.04
2022-10-14T04:23:09.262Z,83.21
2022-10-14T04:25:39.756Z,83.01
2022-10-14T04:28:08.598Z,82.75
2022-10-14T04:31:01.794Z,82.41
2022-10-14T04:33:37.556Z,82.15
2022-10-14T04:36:13.982Z,82.46
2022-10-14T04:38:42.439Z,82.29
2022-10-14T04:41:10.464Z,82.21
2022-10-14T04:43:44.837Z,82.70
2022-10-14T04:46:22.712Z,82.37
2022-10-14T04:48:49.379Z,82.45
2022-10-14T04:51:17.476Z,82.07
2022-10-14T04:54:02.977Z,82.08
2022-10-14T04:56:47.545Z,81.93
2022-10-14T04:59:14.880Z,81.78
2022-10-14T05:02:02.655Z,81.72
2022-10-14T05:04:41.985Z,81.60
2022-10-14T05:07:09.303Z,81.59
2022-10-14T05:09:37.132Z,81.51
2022-10-14T05:12:09.328Z,81.66
2022-10-14T05:14:44.186Z,81.67
2022-10-14T05:17:21.432Z,81.65
2022-10-14T05:19:49.160Z,81.79
2022-10-14T05:22:17.311Z,81.84
2022-10-14T05:24:45.725Z,81.71
2022-10-14T05:27:13.120Z,81.80
2022-10-14T05:29:40.827Z,81.83
2022-10-14T05:32:08.165Z,81.72
2022-10-14T05:34:41.669Z,81.52
2022-10-14T05:37:12.873Z,81.68
2022-10-14T05:39:45.555Z,81.82
2022-10-14T05:42:16.815Z,81.24
2022-10-14T05:44:44.611Z,81.34
2022-10-14T05:47:12.760Z,81.14
2022-10-14T05:49:42.860Z,81.08
2022-10-14T05:52:09.685Z,80.86
2022-10-14T05:54:36.798Z,80.87
2022-10-14T05:57:05.995Z,80.78
2022-10-14T05:59:34.658Z,81.30
2022-10-14T06:02:02.064Z,81.67
2022-10-14T06:04:28.793Z,82.33
2022-10-14T06:06:56.160Z,82.24
2022-10-14T06:09:23.279Z,82.23
2022-10-14T06:11:50.906Z,82.65
2022-10-14T06:14:17.762Z,83.00
2022-10-14T06:16:48.967Z,82.97
2022-10-14T06:19:16.595Z,83.18
2022-10-14T06:21:44.696Z,82.99
2022-10-14T06:24:11.659Z,83.21
2022-10-14T06:26:38.672Z,83.53
2022-10-14T06:29:05.377Z,84.03
2022-10-14T06:31:32.568Z,84.61
2022-10-14T06:34:01.647Z,84.74
2022-10-14T06:36:28.229Z,85.17
2022-10-14T06:38:55.694Z,84.53
2022-10-14T06:41:22.939Z,84.61
2022-10-14T06:43:50.877Z,84.54
2022-10-14T06:46:17.554Z,84.95
2022-10-14T06:48:49.371Z,84.85
2022-10-14T06:51:17.938Z,84.58
2022-10-14T06:53:44.551Z,84.48
2022-10-14T06:56:12.137Z,84.36
2022-10-14T06:58:38.877Z,84.14
2022-10-14T07:01:08.061Z,83.99
2022-10-14T07:03:39.410Z,84.75
2022-10-14T07:06:07.468Z,85.25
2022-10-14T07:08:34.399Z,84.87
2022-10-14T07:11:01.301Z,84.94
2022-10-14T07:13:29.003Z,84.15
2022-10-14T07:15:56.421Z,84.47
2022-10-14T07:18:23.113Z,84.58
2022-10-14T07:20:49.854Z,84.29
2022-10-14T07:23:16.775Z,83.90
2022-10-14T07:25:44.585Z,83.68
2022-10-14T07:28:11.475Z,84.13
2022-10-14T07:30:38.321Z,83.60
2022-10-14T07:33:04.916Z,83.96
2022-10-14T07:35:32.869Z,83.73
2022-10-14T07:38:00.166Z,83.92
2022-10-14T07:40:27.445Z,83.46
2022-10-14T07:42:54.838Z,83.07
2022-10-14T07:45:22.463Z,83.03
2022-10-14T07:47:50.580Z,82.99
2022-10-14T07:50:18.320Z,82.69
2022-10-14T07:52:44.976Z,82.71
2022-10-14T07:55:12.375Z,82.48
2022-10-14T07:57:39.799Z,81.82
2022-10-14T08:00:07.365Z,81.77
2022-10-14T08:02:39.920Z,81.70
2022-10-14T08:05:33.023Z,80.85
2022-10-14T08:07:54.726Z,81.18
2022-10-14T08:10:21.317Z,80.61
2022-10-14T08:12:47.933Z,79.63
2022-10-14T08:15:14.907Z,80.15
2022-10-14T08:17:41.541Z,80.04
2022-10-14T08:20:08.318Z,79.93
2022-10-14T08:22:35.144Z,80.04
2022-10-14T08:25:02.104Z,80.82
2022-10-14T08:27:29.951Z,80.23
2022-10-14T08:29:56.621Z,79.53
2022-10-14T08:32:24.176Z,79.49
2022-10-14T08:34:51.089Z,79.61
2022-10-14T08:37:17.790Z,78.86
2022-10-14T08:39:44.561Z,78.21
2022-10-14T08:42:48.205Z,78.07
2022-10-14T08:45:24.789Z,77.72
2022-10-14T08:47:57.065Z,77.74
2022-10-14T08:50:33.460Z,77.41
2022-10-14T08:53:07.309Z,76.96
2022-10-14T08:55:39.461Z,76.81
2022-10-14T08:58:15.380Z,76.90
2022-10-14T09:00:45.874Z,77.37
2022-10-14T09:03:20.883Z,76.85
2022-10-14T09:06:33.856Z,76.91
2022-10-14T09:09:20.372Z,76.34
2022-10-14T09:11:52.853Z,76.34
2022-10-14T09:14:25.064Z,75.69
2022-10-14T09:17:07.477Z,75.61
2022-10-14T09:19:52.261Z,75.33
2022-10-14T09:22:19.246Z,75.17
2022-10-14T09:24:48.301Z,75.04
2022-10-14T09:27:26.005Z,75.03
2022-10-14T09:30:16.127Z,74.95
2022-10-14T09:32:46.909Z,74.22
2022-10-14T09:35:24.922Z,74.28
2022-10-14T09:37:52.385Z,73.80
2022-10-14T09:40:32.084Z,74.41
2022-10-14T09:43:04.775Z,73.37
2022-10-14T09:45:51.563Z,73.35
2022-10-14T09:48:32.421Z,72.49
2022-10-14T09:51:05.469Z,72.24
2022-10-14T09:53:47.758Z,72.16
2022-10-14T09:56:15.672Z,71.10
2022-10-14T09:58:46.326Z,71.33
2022-10-14T10:01:19.108Z,70.65
2022-10-14T10:03:47.743Z,69.94
2022-10-14T10:06:19.068Z,69.42
2022-10-14T10:09:05.884Z,68.65
2022-10-14T10:11:38.272Z,68.27
2022-10-14T10:14:21.308Z,68.14
2022-10-14T10:19:31.004Z,68.86
2022-10-14T10:25:12.415Z,68.50
2022-10-14T10:27:45.738Z,67.81
2022-10-14T10:30:18.744Z,68.33
2022-10-14T10:33:11.337Z,68.49
2022-10-14T10:36:06.460Z,68.55
2022-10-14T10:39:02.147Z,69.70
2022-10-14T10:41:58.557Z,69.92
2022-10-14T10:44:45.157Z,69.99
2022-10-14T10:47:31.999Z,70.41
2022-10-14T10:50:11.562Z,71.03
2022-10-14T10:53:11.017Z,70.73
2022-10-14T10:56:11.883Z,70.45
2022-10-14T10:58:45.535Z,70.42
2022-10-14T11:01:38.916Z,71.16
2022-10-14T11:04:28.622Z,71.92
2022-10-14T11:07:37.038Z,71.83
2022-10-14T11:10:23.002Z,72.31
2022-10-14T11:13:02.462Z,73.06
2022-10-14T11:15:35.765Z,73.50
2022-10-14T11:18:25.752Z,73.76
2022-10-14T11:21:26.069Z,74.09
2022-10-14T11:24:13.096Z,73.64
2022-10-14T11:26:45.975Z,74.03
2022-10-14T11:29:18.408Z,73.47
2022-10-14T11:32:00.475Z,73.50
2022-10-14T11:35:07.075Z,72.90
2022-10-14T11:37:47.110Z,73.05
2022-10-14T11:40:13.612Z,73.21
2022-10-14T11:43:07.961Z,72.86
2022-10-14T11:45:46.780Z,72.02
2022-10-14T11:48:28.638Z,71.73
2022-10-14T11:51:19.604Z,71.35
2022-10-14T11:54:00.386Z,71.41
2022-10-14T11:56:51.012Z,71.60
2022-10-14T11:59:36.999Z,72.15
2022-10-14T12:02:34.859Z,72.51
2022-10-14T12:05:16.683Z,73.49
2022-10-14T12:08:34.709Z,74.44
2022-10-14T12:11:29.901Z,73.81
2022-10-14T12:14:13.831Z,73.90
2022-10-14T12:16:44.955Z,73.73
2022-10-14T12:19:15.446Z,74.82
2022-10-14T12:21:50.847Z,76.07
2022-10-14T12:24:21.451Z,76.36
2022-10-14T12:26:57.328Z,76.23
2022-10-14T12:29:35.823Z,76.80
2022-10-14T12:32:03.966Z,76.33
2022-10-14T12:34:44.146Z,75.89
2022-10-14T12:37:31.697Z,75.93
2022-10-14T12:40:07.899Z,75.37
2022-10-14T12:42:53.614Z,75.31
2022-10-14T12:45:23.573Z,75.46
2022-10-14T12:48:05.859Z,75.05
2022-10-14T12:50:37.613Z,74.35
2022-10-14T12:53:35.809Z,73.88
2022-10-14T12:56:04.695Z,75.13
2022-10-14T12:58:43.245Z,75.41
2022-10-14T13:01:20.124Z,74.88
2022-10-14T13:03:57.884Z,75.41
2022-10-14T13:06:45.346Z,75.21
2022-10-14T13:09:13.006Z,74.53
2022-10-14T13:12:00.596Z,74.69
2022-10-14T13:14:56.075Z,74.23
2022-10-14T13:17:47.470Z,73.30
2022-10-14T13:20:35.898Z,72.69
2022-10-14T13:23:22.295Z,71.82
2022-10-14T13:25:52.993Z,72.86
2022-10-14T13:28:23.187Z,73.08
2022-10-14T13:31:06.689Z,73.32
2022-10-14T13:33:44.111Z,73.82
2022-10-14T13:36:22.609Z,74.53
2022-10-14T13:38:59.089Z,74.47
2022-10-14T13:41:30.729Z,74.56
2022-10-14T13:44:00.154Z,74.55
2022-10-14T13:46:37.054Z,74.46
2022-10-14T13:52:01.703Z,74.60
2022-10-14T13:54:32.343Z,75.29
2022-10-14T14:00:38.976Z,75.52
2022-10-14T14:02:54.501Z,76.03
2022-10-14T14:05:25.809Z,75.84
2022-10-14T14:11:03.638Z,76.26
2022-10-14T14:13:33.773Z,77.11
2022-10-14T14:16:00.956Z,76.49
2022-10-14T14:18:49.155Z,76.37
2022-10-14T14:21:24.418Z,76.35
2022-10-14T14:23:54.271Z,76.15
2022-10-14T14:26:34.637Z,75.88
2022-10-14T14:29:15.079Z,75.74
2022-10-14T14:34:31.088Z,76.09
2022-10-14T14:37:16.555Z,76.02
2022-10-14T14:40:14.732Z,75.91
2022-10-14T14:42:42.274Z,76.28
2022-10-14T14:45:14.527Z,76.11
2022-10-14T14:47:42.637Z,76.33
2022-10-14T14:50:31.471Z,76.40
2022-10-14T14:53:03.637Z,76.88
2022-10-14T14:55:39.139Z,77.83
2022-10-14T14:58:33.300Z,78.23
2022-10-14T15:01:03.013Z,78.34
2022-10-14T15:03:33.875Z,78.39
2022-10-14T15:06:04.741Z,78.46
2022-10-14T15:08:34.645Z,77.54
2022-10-14T15:11:01.867Z,77.51
2022-10-14T15:13:44.127Z,77.27
2022-10-14T15:16:10.983Z,77.35
2022-10-14T15:18:37.917Z,77.20
2022-10-14T15:21:12.223Z,77.20
2022-10-14T15:23:52.821Z,77.74
2022-10-14T15:26:21.757Z,77.98
2022-10-14T15:29:25.746Z,78.24
2022-10-14T15:32:15.086Z,78.74
2022-10-14T15:34:41.909Z,79.22
2022-10-14T15:37:13.061Z,79.32
2022-10-14T15:39:40.073Z,79.14
2022-10-14T15:42:12.324Z,79.48
2022-10-14T15:44:39.558Z,79.72
2022-10-14T15:47:21.323Z,79.69
2022-10-14T15:49:49.016Z,80.03
2022-10-14T15:52:17.805Z,80.37
2022-10-14T15:54:46.737Z,80.49
2022-10-14T15:57:16.858Z,80.15
2022-10-14T15:59:47.765Z,80.39
2022-10-14T16:02:20.368Z,80.82
2022-10-14T16:05:07.253Z,80.90
2022-10-14T16:07:34.163Z,80.95
2022-10-14T16:10:01.113Z,80.88
2022-10-14T16:12:27.957Z,81.27
2022-10-14T16:14:55.153Z,81.14
2022-10-14T16:17:22.049Z,80.96
2022-10-14T16:19:49.077Z,80.44
2022-10-14T16:22:15.874Z,80.83
2022-10-14T16:24:42.483Z,80.28
2022-10-14T16:27:10.542Z,80.82
2022-10-14T16:29:38.167Z,80.97
2022-10-14T16:32:05.073Z,80.99
2022-10-14T16:34:31.722Z,80.49
2022-10-14T16:36:58.437Z,80.22
2022-10-14T16:39:25.117Z,80.57
2022-10-14T16:41:51.874Z,80.48
2022-10-14T16:44:25.172Z,80.68
2022-10-14T16:47:12.105Z,80.76
2022-10-14T16:49:40.108Z,80.83
2022-10-14T16:52:08.573Z,81.52
2022-10-14T16:54:36.021Z,81.37
2022-10-14T16:57:04.467Z,81.35
2022-10-14T16:59:32.061Z,81.67
2022-10-14T17:01:59.206Z,81.91
2022-10-14T17:04:29.100Z,82.51
2022-10-14T17:06:59.415Z,82.27
2022-10-14T17:09:26.134Z,82.63
2022-10-14T17:11:57.613Z,82.81
2022-10-14T17:14:24.461Z,82.55
2022-10-14T17:16:53.935Z,82.81
2022-10-14T17:19:22.882Z,82.33
2022-10-14T17:21:49.594Z,82.39
2022-10-14T17:24:16.990Z,82.65
2022-10-14T17:26:45.100Z,83.01
2022-10-14T17:29:12.064Z,82.80
2022-10-14T17:31:38.921Z,83.06
2022-10-14T17:34:09.427Z,83.22
2022-10-14T17:36:36.122Z,82.97
2022-10-14T17:39:03.329Z,83.06
2022-10-14T17:41:30.566Z,83.19
2022-10-14T17:44:00.017Z,82.78
2022-10-14T17:46:29.462Z,83.39
2022-10-14T17:49:02.617Z,83.49
2022-10-14T17:51:30.025Z,83.53
2022-10-14T17:53:59.190Z,83.04
2022-10-14T17:56:27.813Z,83.19
2022-10-14T17:58:55.866Z,83.55
2022-10-14T18:01:36.813Z,83.11
2022-10-14T18:04:07.807Z,83.13
2022-10-14T18:06:35.819Z,83.59
2022-10-14T18:09:06.193Z,83.65
2022-10-14T18:14:34.045Z,83.52
2022-10-14T18:17:01.228Z,83.49
2022-10-14T18:19:27.878Z,83.39
2022-10-14T18:21:54.472Z,83.17
2022-10-14T18:24:21.161Z,83.49
2022-10-14T18:26:53.310Z,83.66
2022-10-14T18:29:21.068Z,83.71
2022-10-14T18:34:17.006Z,83.60
2022-10-14T18:36:43.666Z,83.89
2022-10-14T18:39:12.330Z,83.76
2022-10-14T18:41:39.319Z,83.90
2022-10-14T18:44:07.232Z,84.31
2022-10-14T18:46:38.095Z,84.29
2022-10-14T18:49:06.795Z,84.42
2022-10-14T18:51:37.332Z,84.00
2022-10-14T18:54:08.824Z,84.50
2022-10-14T18:56:38.815Z,84.77
2022-10-14T18:59:12.128Z,84.39
2022-10-14T19:01:39.702Z,84.51
2022-10-14T19:04:08.395Z,84.29
2022-10-14T19:06:41.331Z,84.17
2022-10-14T19:09:12.437Z,84.34
2022-10-14T19:11:39.122Z,84.36
2022-10-14T19:14:05.717Z,84.47
2022-10-14T19:16:36.360Z,84.47
2022-10-14T19:19:14.278Z,84.63
2022-10-14T19:21:43.399Z,84.63
2022-10-14T19:24:11.456Z,84.58
2022-10-14T19:26:41.336Z,84.75
2022-10-14T19:29:11.694Z,84.49
2022-10-14T19:31:39.380Z,84.35
2022-10-14T19:34:08.389Z,84.77
2022-10-14T19:36:37.387Z,84.76
2022-10-14T19:39:06.738Z,84.88
2022-10-14T19:41:39.465Z,84.40
2022-10-14T19:44:06.616Z,84.41
2022-10-14T19:46:33.224Z,84.95
2022-10-14T19:49:05.265Z,84.87
2022-10-14T19:51:35.510Z,84.82
2022-10-14T19:54:02.875Z,85.03
2022-10-14T19:56:30.437Z,84.90
2022-10-14T19:58:59.048Z,85.39
2022-10-14T20:01:28.708Z,85.51
2022-10-14T20:03:56.381Z,85.27
2022-10-14T20:06:24.680Z,85.57
2022-10-14T20:08:51.408Z,85.15
2022-10-14T20:11:21.272Z,85.32
2022-10-14T20:13:48.588Z,85.13
2022-10-14T20:16:15.533Z,85.25
2022-10-14T20:18:42.502Z,84.92
2022-10-14T20:21:13.238Z,85.28
2022-10-14T20:23:40.551Z,84.97
2022-10-14T20:26:14.188Z,85.14
2022-10-14T20:28:41.163Z,85.28
2022-10-14T20:31:09.433Z,85.25
2022-10-14T20:33:36.665Z,85.33
2022-10-14T20:36:10.636Z,85.55
2022-10-14T20:38:38.276Z,85.65
2022-10-14T20:41:19.551Z,85.34
2022-10-14T20:43:48.227Z,85.41
2022-10-14T20:46:15.352Z,85.02
2022-10-14T20:48:42.323Z,85.07
2022-10-14T20:51:15.478Z,85.14
2022-10-14T20:53:42.316Z,84.67
2022-10-14T20:56:12.074Z,84.94
2022-10-14T20:58:39.875Z,84.80
2022-10-14T21:01:11.204Z,84.41
2022-10-14T21:03:40.183Z,84.70
2022-10-14T21:06:09.184Z,84.61
2022-10-14T21:08:37.420Z,84.44
2022-10-14T21:11:10.525Z,84.36
2022-10-14T21:13:41.294Z,83.93
2022-10-14T21:16:34.939Z,83.23
2022-10-14T21:19:04.965Z,83.17
2022-10-14T21:21:46.171Z,82.73
2022-10-14T21:24:16.790Z,82.28
2022-10-14T21:26:44.808Z,82.42
2022-10-14T21:29:12.193Z,82.10
2022-10-14T21:31:39.520Z,81.84
2022-10-14T21:34:07.087Z,81.65
2022-10-14T21:36:38.213Z,81.60
2022-10-14T21:39:09.117Z,81.00
2022-10-14T21:41:36.570Z,80.81
2022-10-14T21:44:04.995Z,81.07
2022-10-14T21:46:32.212Z,80.63
2022-10-14T21:49:00.094Z,80.14
2022-10-14T21:51:29.173Z,79.67
2022-10-14T21:53:56.730Z,79.69
2022-10-14T21:56:24.156Z,79.42
2022-10-14T21:58:51.221Z,79.13
2022-10-14T22:01:23.851Z,79.52
2022-10-14T22:03:56.149Z,78.95
2022-10-14T22:06:23.181Z,78.62
2022-10-14T22:08:52.551Z,78.95
2022-10-14T22:11:23.159Z,78.83
2022-10-14T22:13:51.916Z,79.03
2022-10-14T22:16:19.441Z,78.88
2022-10-14T22:18:47.861Z,78.80
2022-10-14T22:21:16.379Z,79.07
2022-10-14T22:23:43.203Z,78.94
2022-10-14T22:26:16.967Z,78.86
2022-10-14T22:28:44.943Z,78.44
2022-10-14T22:31:22.216Z,78.32
2022-10-14T22:33:49.666Z,78.56
2022-10-14T22:36:22.615Z,78.37
2022-10-14T22:38:53.434Z,78.20
2022-10-14T22:41:22.018Z,78.11
2022-10-14T22:43:51.140Z,77.89
2022-10-14T22:46:23.633Z,77.96
2022-10-14T22:48:56.292Z,77.95
2022-10-14T22:51:35.825Z,78.06
2022-10-14T22:54:03.226Z,77.98
2022-10-14T22:56:30.913Z,78.25
2022-10-14T22:59:01.351Z,78.25
2022-10-14T23:01:28.989Z,77.66
2022-10-14T23:03:57.106Z,78.29
2022-10-14T23:06:24.574Z,78.37
2022-10-14T23:08:51.373Z,78.47
2022-10-14T23:11:20.683Z,78.10
2022-10-14T23:13:48.741Z,78.42
2022-10-14T23:16:18.456Z,78.26
2022-10-14T23:18:45.963Z,78.35
2022-10-14T23:21:27.473Z,78.67
2022-10-14T23:23:57.016Z,78.58
2022-10-14T23:26:26.144Z,78.87
2022-10-14T23:28:55.332Z,78.71
2022-10-14T23:31:24.690Z,79.06
